Dalton Gardens, Idaho
Current Conditions -  °F | °C
As of 10:35 PM on Thursday 18 Dec 2014 (Local Time) from KCOE Reporting Station
Overcast Overcast  
Wind Chill: 32°   Ceiling: 3800
Heat Index: 37°   Visibility: 7mi
Dew Point: 34°   Wind: 7mph
Humidity: 87%   Direction: 30°NNE
Pressure: 29.94"   Gusts: NA
Location:  47.7269°N, 116.787°W
Report Text: KCOE 190635Z AUTO 03006KT 7SM BKN038 OVC046 03/01 A2994 RMK AO1
Loading
Personal Weather Stations






























Interactive Weather Map New forecast layout! Learn more

10-Day Weather Forecast

Advertisements
Track Severe Weather on mobile